Time;durP1;ratioP1;P1;durP2;ratioP2;P2;SDS_P1;SDS_P2;PMS_P1;PMS_P2;Temp;Humidity;BMP_temperature;BMP_pressure;BME280_temperature;BME280_humidity;BME280_pressure;Samples;Min_cycle;Max_cycle;Signal;HPM_P1;HPM_P2
2022/07/28 00:00:04;;;;;;;21.73;20.00;;;;;;;;;;5032997;28;20677;-84
2022/07/28 00:02:31;;;;;;;20.40;19.20;;;;;;;;;;5033543;28;20885;-84
2022/07/28 00:04:59;;;;;;;20.77;19.40;;;;;;;;;;5032619;28;20475;-84
2022/07/28 00:07:26;;;;;;;21.30;20.00;;;;;;;;;;5033570;28;20458;-84
2022/07/28 00:09:53;;;;;;;21.70;19.90;;;;;;;;;;5033561;28;20457;-84
2022/07/28 00:12:22;;;;;;;21.60;19.80;;;;;;;;;;5033255;28;20976;-83
2022/07/28 00:14:50;;;;;;;21.87;20.30;;;;;;;;;;5033718;28;20448;-82
2022/07/28 00:17:17;;;;;;;20.93;19.63;;;;;;;;;;5033551;28;20488;-84
2022/07/28 00:19:44;;;;;;;21.33;20.00;;;;;;;;;;5033410;28;20784;-84
2022/07/28 00:22:12;;;;;;;21.93;20.47;;;;;;;;;;5033575;28;20444;-84
2022/07/28 00:24:39;;;;;;;20.40;19.23;;;;;;;;;;5033341;28;20816;-83
2022/07/28 00:27:06;;;;;;;21.30;20.10;;;;;;;;;;5033075;28;20458;-84
2022/07/28 00:29:35;;;;;;;21.57;20.13;;;;;;;;;;5033521;28;21190;-84
2022/07/28 00:32:03;;;;;;;21.80;20.40;;;;;;;;;;5033217;28;20473;-84
2022/07/28 00:34:30;;;;;;;21.77;19.97;;;;;;;;;;5033219;28;20942;-84
2022/07/28 00:36:58;;;;;;;21.47;20.03;;;;;;;;;;5033226;28;20473;-84
2022/07/28 00:39:25;;;;;;;21.43;19.83;;;;;;;;;;5033195;28;20457;-83
2022/07/28 00:41:52;;;;;;;20.80;19.70;;;;;;;;;;5033344;28;20459;-84
2022/07/28 00:44:20;;;;;;;21.87;19.63;;;;;;;;;;5033499;28;20443;-84
2022/07/28 00:46:49;;;;;;;21.10;19.40;;;;;;;;;;5033224;28;20449;-84
2022/07/28 00:49:16;;;;;;;20.53;19.43;;;;;;;;;;5033363;28;20965;-84
2022/07/28 00:51:43;;;;;;;20.67;19.23;;;;;;;;;;5033371;28;20414;-83
2022/07/28 00:54:11;;;;;;;21.07;19.77;;;;;;;;;;5032983;28;20408;-83
2022/07/28 00:56:39;;;;;;;20.97;19.53;;;;;;;;;;5032817;28;20876;-84
2022/07/28 00:59:06;;;;;;;20.40;19.23;;;;;;;;;;5033203;28;20411;-84
2022/07/28 01:01:33;;;;;;;20.50;19.30;;;;;;;;;;5033268;28;20428;-84
2022/07/28 01:04:03;;;;;;;20.87;19.23;;;;;;;;;;5032797;28;20422;-83
2022/07/28 01:06:38;;;;;;;20.73;19.33;;;;;;;;;;5033277;28;21000;-83
2022/07/28 01:09:10;;;;;;;21.47;19.97;;;;;;;;;;5033095;28;20803;-84
2022/07/28 01:11:43;;;;;;;20.77;19.47;;;;;;;;;;5036293;28;20435;-84
2022/07/28 01:14:12;;;;;;;19.40;18.40;;;;;;;;;;5036811;28;20504;-84
2022/07/28 01:16:40;;;;;;;20.20;18.97;;;;;;;;;;5036954;28;20474;-84
2022/07/28 01:19:14;;;;;;;21.33;19.73;;;;;;;;;;5037029;28;20468;-84
2022/07/28 01:21:42;;;;;;;20.53;19.10;;;;;;;;;;5036679;28;20517;-83
2022/07/28 01:24:12;;;;;;;20.13;18.70;;;;;;;;;;5036791;28;20947;-84
2022/07/28 01:26:42;;;;;;;20.63;19.30;;;;;;;;;;5036606;28;20495;-84
2022/07/28 01:29:17;;;;;;;20.33;18.97;;;;;;;;;;5036728;28;20489;-84
2022/07/28 01:31:49;;;;;;;21.17;19.77;;;;;;;;;;5036646;28;20790;-84
2022/07/28 01:34:19;;;;;;;19.57;18.53;;;;;;;;;;5036219;28;20488;-84
2022/07/28 01:36:47;;;;;;;20.80;19.50;;;;;;;;;;5036733;28;20493;-84
2022/07/28 01:39:15;;;;;;;21.33;20.00;;;;;;;;;;5036798;28;20807;-84
2022/07/28 01:41:44;;;;;;;20.53;19.37;;;;;;;;;;5036720;28;20464;-84
2022/07/28 01:44:13;;;;;;;20.77;19.47;;;;;;;;;;5036394;28;20876;-84
2022/07/28 01:46:42;;;;;;;21.83;19.97;;;;;;;;;;5036305;28;20911;-84
2022/07/28 01:49:13;;;;;;;20.10;18.70;;;;;;;;;;5036160;28;20440;-83
2022/07/28 01:51:40;;;;;;;21.57;20.20;;;;;;;;;;5036359;28;20463;-83
2022/07/28 01:54:08;;;;;;;20.57;19.47;;;;;;;;;;5036225;28;20488;-84
2022/07/28 01:56:36;;;;;;;19.87;18.87;;;;;;;;;;5036103;28;20429;-84
2022/07/28 01:59:06;;;;;;;21.17;19.90;;;;;;;;;;5036271;28;20437;-83
2022/07/28 02:01:35;;;;;;;20.67;19.30;;;;;;;;;;5036031;28;20912;-84
2022/07/28 02:04:03;;;;;;;21.10;19.80;;;;;;;;;;5036027;28;20516;-84
2022/07/28 02:06:32;;;;;;;20.10;18.90;;;;;;;;;;5035829;28;20430;-82
2022/07/28 02:09:00;;;;;;;20.20;19.00;;;;;;;;;;5035718;28;20433;-83
2022/07/28 02:11:43;;;;;;;21.07;19.40;;;;;;;;;;5035846;28;20451;-84
2022/07/28 02:14:11;;;;;;;19.70;18.60;;;;;;;;;;5035886;28;20458;-84
2022/07/28 02:16:40;;;;;;;21.53;20.20;;;;;;;;;;5035843;28;20422;-84
2022/07/28 02:19:08;;;;;;;20.57;19.17;;;;;;;;;;5035697;28;20904;-84
2022/07/28 02:21:38;;;;;;;19.90;18.70;;;;;;;;;;5035044;28;20415;-84
2022/07/28 02:24:07;;;;;;;19.87;18.70;;;;;;;;;;5035741;28;20448;-85
2022/07/28 02:26:36;;;;;;;19.73;18.63;;;;;;;;;;5035317;28;20454;-83
2022/07/28 02:29:05;;;;;;;20.50;19.30;;;;;;;;;;5034516;28;20511;-84
2022/07/28 02:31:35;;;;;;;20.40;19.27;;;;;;;;;;5035710;28;20817;-84
2022/07/28 02:34:04;;;;;;;19.83;18.83;;;;;;;;;;5035662;28;20492;-84
2022/07/28 02:36:32;;;;;;;20.30;19.10;;;;;;;;;;5035399;28;20453;-84
2022/07/28 02:39:03;;;;;;;19.37;18.37;;;;;;;;;;5035363;28;20983;-84
2022/07/28 02:41:32;;;;;;;24.27;22.10;;;;;;;;;;5035176;28;20447;-84
2022/07/28 02:44:00;;;;;;;20.60;19.37;;;;;;;;;;5035477;28;20456;-83
2022/07/28 02:46:30;;;;;;;20.07;18.87;;;;;;;;;;5035437;28;20566;-84
2022/07/28 02:49:01;;;;;;;20.57;19.27;;;;;;;;;;5035202;28;20922;-84
2022/07/28 02:51:30;;;;;;;20.80;19.33;;;;;;;;;;5035205;28;20519;-84
2022/07/28 02:53:57;;;;;;;20.90;19.67;;;;;;;;;;5034796;28;20475;-84
2022/07/28 02:56:27;;;;;;;20.93;19.73;;;;;;;;;;5034988;28;20403;-84
2022/07/28 02:58:55;;;;;;;20.27;19.07;;;;;;;;;;5034865;28;20501;-83
2022/07/28 03:01:23;;;;;;;20.97;19.27;;;;;;;;;;5035002;28;20438;-84
2022/07/28 03:03:51;;;;;;;20.63;19.47;;;;;;;;;;5034906;28;20421;-84
2022/07/28 03:06:18;;;;;;;20.70;19.40;;;;;;;;;;5034999;28;20776;-84
2022/07/28 03:08:46;;;;;;;21.37;20.10;;;;;;;;;;5034970;28;20463;-83
2022/07/28 03:11:14;;;;;;;20.77;19.43;;;;;;;;;;5034778;28;20484;-84
2022/07/28 03:13:43;;;;;;;20.60;18.97;;;;;;;;;;5034696;28;20458;-83
2022/07/28 03:16:10;;;;;;;20.80;19.60;;;;;;;;;;5034921;28;20521;-83
2022/07/28 03:18:38;;;;;;;20.37;19.20;;;;;;;;;;5034573;28;20476;-85
2022/07/28 03:21:05;;;;;;;22.03;20.37;;;;;;;;;;5034895;28;20438;-84
2022/07/28 03:23:35;;;;;;;22.03;20.63;;;;;;;;;;5034729;28;20438;-84
2022/07/28 03:26:06;;;;;;;20.83;19.63;;;;;;;;;;5034113;28;20809;-84
2022/07/28 03:28:34;;;;;;;21.40;19.90;;;;;;;;;;5034502;28;20469;-84
2022/07/28 03:31:08;;;;;;;21.90;20.40;;;;;;;;;;5034789;28;20532;-84
2022/07/28 03:33:36;;;;;;;20.57;19.07;;;;;;;;;;5033405;28;20495;-84
2022/07/28 03:36:06;;;;;;;20.47;19.30;;;;;;;;;;5034237;28;20427;-84
2022/07/28 03:38:34;;;;;;;20.63;19.10;;;;;;;;;;5034383;28;20443;-84
2022/07/28 03:41:02;;;;;;;21.37;19.77;;;;;;;;;;5034357;28;20430;-84
2022/07/28 03:43:29;;;;;;;20.30;19.30;;;;;;;;;;5034183;28;20478;-84
2022/07/28 03:45:57;;;;;;;22.40;20.10;;;;;;;;;;5033978;28;20451;-84
2022/07/28 03:48:30;;;;;;;22.30;20.87;;;;;;;;;;5033908;28;20407;-83
2022/07/28 03:50:58;;;;;;;20.90;19.70;;;;;;;;;;5034220;28;20456;-83
2022/07/28 03:53:26;;;;;;;21.93;20.33;;;;;;;;;;5034064;28;20483;-83
2022/07/28 03:55:54;;;;;;;20.30;19.20;;;;;;;;;;5033838;28;20478;-84
2022/07/28 03:58:22;;;;;;;20.73;19.43;;;;;;;;;;5034461;28;20464;-85
2022/07/28 04:00:50;;;;;;;20.83;19.73;;;;;;;;;;5035473;28;20455;-85
2022/07/28 04:03:18;;;;;;;20.27;19.13;;;;;;;;;;5034212;28;20436;-84
2022/07/28 04:05:48;;;;;;;21.20;19.37;;;;;;;;;;5033870;28;20891;-84
2022/07/28 04:08:15;;;;;;;21.27;19.70;;;;;;;;;;5033738;28;20433;-83
2022/07/28 04:10:42;;;;;;;22.47;20.67;;;;;;;;;;5034350;28;20430;-86
2022/07/28 04:13:11;;;;;;;20.97;19.77;;;;;;;;;;5034696;28;20479;-85
2022/07/28 04:15:38;;;;;;;20.10;18.90;;;;;;;;;;5034163;28;20494;-86
2022/07/28 04:18:06;;;;;;;21.37;20.00;;;;;;;;;;5034602;28;20895;-86
2022/07/28 04:20:33;;;;;;;20.73;18.90;;;;;;;;;;5033862;28;20414;-86
2022/07/28 04:23:02;;;;;;;20.93;19.83;;;;;;;;;;5034520;28;20438;-85
2022/07/28 04:25:29;;;;;;;21.00;19.80;;;;;;;;;;5033982;28;20483;-85
2022/07/28 04:27:57;;;;;;;20.37;19.03;;;;;;;;;;5034623;28;20833;-85
2022/07/28 04:30:26;;;;;;;19.97;18.87;;;;;;;;;;5033954;28;20517;-85
2022/07/28 04:32:55;;;;;;;20.60;19.40;;;;;;;;;;5034645;28;20493;-86
2022/07/28 04:35:24;;;;;;;20.93;19.67;;;;;;;;;;5033306;28;20441;-85
2022/07/28 04:37:54;;;;;;;20.27;18.80;;;;;;;;;;5033332;28;20448;-86
2022/07/28 04:40:22;;;;;;;19.83;18.83;;;;;;;;;;5034011;28;20443;-85
2022/07/28 04:42:50;;;;;;;20.67;19.30;;;;;;;;;;5034679;28;20444;-86
2022/07/28 04:45:17;;;;;;;20.37;19.17;;;;;;;;;;5033413;28;20442;-85
2022/07/28 04:47:44;;;;;;;20.27;19.27;;;;;;;;;;5034489;28;20443;-85
2022/07/28 04:50:14;;;;;;;20.60;19.40;;;;;;;;;;5034746;28;20414;-86
2022/07/28 04:52:41;;;;;;;20.13;19.03;;;;;;;;;;5034273;28;20419;-86
2022/07/28 04:55:09;;;;;;;19.67;18.57;;;;;;;;;;5033747;28;20466;-86
2022/07/28 04:57:38;;;;;;;20.03;18.67;;;;;;;;;;5034178;28;20900;-85
2022/07/28 05:00:11;;;;;;;20.20;19.00;;;;;;;;;;5034556;28;20411;-85
2022/07/28 05:02:38;;;;;;;19.57;18.47;;;;;;;;;;5034138;28;20416;-85
2022/07/28 05:05:06;;;;;;;19.37;18.23;;;;;;;;;;5034117;28;20434;-86
2022/07/28 05:07:33;;;;;;;19.97;18.70;;;;;;;;;;5034274;28;20434;-86
2022/07/28 05:10:01;;;;;;;20.23;19.13;;;;;;;;;;5033930;28;20501;-85
2022/07/28 05:12:28;;;;;;;20.43;19.33;;;;;;;;;;5034085;28;20467;-86
2022/07/28 05:14:57;;;;;;;20.30;19.07;;;;;;;;;;5035584;28;20808;-85
2022/07/28 05:17:24;;;;;;;19.80;18.70;;;;;;;;;;5033815;28;20436;-84
2022/07/28 05:19:52;;;;;;;21.03;19.90;;;;;;;;;;5033230;28;20450;-84
2022/07/28 05:22:19;;;;;;;20.10;18.83;;;;;;;;;;5033626;28;20440;-86
2022/07/28 05:24:47;;;;;;;20.63;19.53;;;;;;;;;;5033387;28;20442;-85
2022/07/28 05:27:14;;;;;;;20.70;19.60;;;;;;;;;;5033648;28;20480;-86
2022/07/28 05:29:41;;;;;;;20.60;19.40;;;;;;;;;;5033898;28;20443;-86
2022/07/28 05:32:11;;;;;;;20.60;19.60;;;;;;;;;;5034226;28;20421;-86
2022/07/28 05:34:38;;;;;;;21.63;20.20;;;;;;;;;;5033736;28;20458;-83
2022/07/28 05:37:06;;;;;;;20.70;19.70;;;;;;;;;;5034308;28;20415;-85
2022/07/28 05:39:34;;;;;;;21.60;20.30;;;;;;;;;;5033216;28;20443;-86
2022/07/28 05:42:01;;;;;;;21.03;19.80;;;;;;;;;;5033596;28;20800;-85
2022/07/28 05:44:29;;;;;;;20.60;19.30;;;;;;;;;;5033101;28;20428;-84
2022/07/28 05:46:56;;;;;;;21.13;19.90;;;;;;;;;;5032989;28;20430;-91
2022/07/28 05:49:25;;;;;;;23.80;21.80;;;;;;;;;;5013446;28;20461;-82
2022/07/28 05:51:52;;;;;;;21.50;20.30;;;;;;;;;;5014102;28;20793;-84
2022/07/28 05:54:19;;;;;;;19.87;18.87;;;;;;;;;;5014308;28;20470;-85
2022/07/28 05:56:47;;;;;;;20.40;19.27;;;;;;;;;;5014557;28;20878;-80
2022/07/28 05:59:14;;;;;;;20.87;19.70;;;;;;;;;;5015680;28;20419;-81
2022/07/28 06:01:41;;;;;;;20.40;19.30;;;;;;;;;;5017328;28;20418;-80
2022/07/28 06:04:09;;;;;;;20.23;19.13;;;;;;;;;;5016322;28;20412;-83
2022/07/28 06:06:38;;;;;;;20.87;19.57;;;;;;;;;;5015052;28;20447;-83
2022/07/28 06:09:05;;;;;;;21.30;20.00;;;;;;;;;;5015911;28;20433;-83
2022/07/28 06:11:33;;;;;;;20.60;19.50;;;;;;;;;;5015826;28;20957;-84
2022/07/28 06:14:00;;;;;;;20.50;19.20;;;;;;;;;;5016084;28;20459;-82
2022/07/28 06:16:27;;;;;;;22.60;21.00;;;;;;;;;;5015798;28;20425;-87
2022/07/28 06:18:55;;;;;;;21.17;19.83;;;;;;;;;;5016588;28;20946;-90
2022/07/28 06:21:23;;;;;;;20.33;19.30;;;;;;;;;;5015948;28;20444;-82
2022/07/28 06:23:52;;;;;;;20.60;19.40;;;;;;;;;;5015710;28;20905;-82
2022/07/28 06:26:20;;;;;;;20.50;19.30;;;;;;;;;;5015449;28;20462;-82
2022/07/28 06:28:47;;;;;;;20.60;19.37;;;;;;;;;;5015671;28;20408;-83
2022/07/28 06:31:14;;;;;;;20.70;19.30;;;;;;;;;;5015877;28;20412;-82
2022/07/28 06:33:42;;;;;;;19.93;18.87;;;;;;;;;;5015913;28;20403;-83
2022/07/28 06:36:09;;;;;;;20.30;19.20;;;;;;;;;;5014697;28;20495;-82
2022/07/28 06:38:37;;;;;;;20.37;19.20;;;;;;;;;;5015603;28;20416;-82
2022/07/28 06:41:06;;;;;;;20.80;19.40;;;;;;;;;;5015256;28;20448;-82
2022/07/28 06:43:33;;;;;;;20.93;19.83;;;;;;;;;;5015464;28;20443;-83
2022/07/28 06:46:01;;;;;;;21.37;20.13;;;;;;;;;;5015182;28;20927;-82
2022/07/28 06:48:28;;;;;;;20.57;19.30;;;;;;;;;;5015085;28;20421;-82
2022/07/28 06:50:58;;;;;;;21.63;20.10;;;;;;;;;;5015494;28;20407;-84
2022/07/28 06:53:25;;;;;;;20.30;19.10;;;;;;;;;;5014294;28;20420;-82
2022/07/28 06:55:53;;;;;;;20.57;19.47;;;;;;;;;;5015142;28;20492;-82
2022/07/28 06:58:22;;;;;;;20.90;19.50;;;;;;;;;;5015160;28;20451;-83
2022/07/28 07:00:49;;;;;;;19.90;18.70;;;;;;;;;;5015177;28;20857;-84
2022/07/28 07:03:16;;;;;;;21.33;19.80;;;;;;;;;;5015662;28;20485;-85
2022/07/28 07:05:44;;;;;;;21.57;19.80;;;;;;;;;;5015751;28;20407;-84
2022/07/28 07:08:11;;;;;;;19.90;18.90;;;;;;;;;;5015311;28;20446;-85
2022/07/28 07:10:38;;;;;;;20.23;19.03;;;;;;;;;;5015117;28;20895;-85
2022/07/28 07:13:06;;;;;;;20.57;19.40;;;;;;;;;;5015552;28;20474;-85
2022/07/28 07:15:35;;;;;;;21.27;19.90;;;;;;;;;;5015337;28;20852;-84
2022/07/28 07:18:02;;;;;;;20.73;19.50;;;;;;;;;;5015461;28;20830;-84
2022/07/28 07:20:29;;;;;;;20.40;19.30;;;;;;;;;;5015268;28;20473;-84
2022/07/28 07:22:57;;;;;;;21.10;20.00;;;;;;;;;;5014841;28;20458;-84
2022/07/28 07:25:24;;;;;;;20.83;19.53;;;;;;;;;;5014526;28;20429;-83
2022/07/28 07:27:51;;;;;;;21.50;20.10;;;;;;;;;;5015113;28;20437;-84
2022/07/28 07:30:19;;;;;;;20.60;19.50;;;;;;;;;;5014688;28;20410;-83
2022/07/28 07:32:48;;;;;;;21.30;20.00;;;;;;;;;;5014627;28;20434;-83
2022/07/28 07:35:15;;;;;;;21.23;20.10;;;;;;;;;;5021566;28;20906;-80
2022/07/28 07:37:43;;;;;;;20.80;19.70;;;;;;;;;;5034071;28;20438;-89
2022/07/28 07:40:10;;;;;;;21.00;19.50;;;;;;;;;;5034334;28;20469;-84
2022/07/28 07:42:38;;;;;;;22.33;20.70;;;;;;;;;;5035510;28;20411;-85
2022/07/28 07:45:05;;;;;;;21.17;19.80;;;;;;;;;;5034144;28;20424;-85
2022/07/28 07:47:33;;;;;;;21.20;19.90;;;;;;;;;;5034596;28;20952;-86
2022/07/28 07:50:02;;;;;;;21.13;19.83;;;;;;;;;;5034582;28;20418;-81
2022/07/28 07:52:29;;;;;;;20.90;19.80;;;;;;;;;;5034388;28;20475;-83
2022/07/28 07:54:56;;;;;;;20.83;19.70;;;;;;;;;;5033617;28;20457;-85
2022/07/28 07:57:24;;;;;;;20.57;19.27;;;;;;;;;;5033824;28;20474;-83
2022/07/28 07:59:51;;;;;;;20.03;18.93;;;;;;;;;;5032766;28;20424;-83
2022/07/28 08:02:18;;;;;;;21.73;20.13;;;;;;;;;;5034583;28;20417;-84
2022/07/28 08:04:46;;;;;;;20.70;19.60;;;;;;;;;;5033809;28;20433;-84
2022/07/28 08:07:15;;;;;;;21.10;19.73;;;;;;;;;;5033819;28;20428;-83
2022/07/28 08:09:43;;;;;;;22.00;20.60;;;;;;;;;;5033566;28;20443;-83
2022/07/28 08:12:10;;;;;;;21.37;19.60;;;;;;;;;;5033487;28;20418;-81
2022/07/28 08:14:37;;;;;;;21.10;20.00;;;;;;;;;;5033315;28;20516;-86
2022/07/28 08:17:05;;;;;;;22.20;20.80;;;;;;;;;;5033637;28;20416;-82
2022/07/28 08:19:32;;;;;;;22.20;20.80;;;;;;;;;;5032662;28;20420;-79
2022/07/28 08:22:01;;;;;;;21.10;19.80;;;;;;;;;;5033881;28;20445;-84
2022/07/28 08:24:30;;;;;;;19.80;18.70;;;;;;;;;;5033917;28;20441;-86
2022/07/28 08:26:57;;;;;;;20.63;19.43;;;;;;;;;;5034166;28;20506;-87
2022/07/28 08:29:25;;;;;;;22.70;21.30;;;;;;;;;;5034253;28;20421;-91
2022/07/28 08:31:52;;;;;;;21.53;20.00;;;;;;;;;;5034529;28;20524;-81
2022/07/28 08:34:19;;;;;;;21.10;19.80;;;;;;;;;;5034624;28;20415;-83
2022/07/28 08:36:47;;;;;;;22.20;20.80;;;;;;;;;;5035189;28;20421;-86
2022/07/28 08:39:14;;;;;;;21.97;20.67;;;;;;;;;;5033819;28;20412;-78
2022/07/28 08:41:45;;;;;;;24.00;22.03;;;;;;;;;;5032748;28;20486;-82
2022/07/28 08:44:14;;;;;;;20.90;19.80;;;;;;;;;;5033558;28;20926;-90
2022/07/28 08:46:43;;;;;;;22.53;21.13;;;;;;;;;;5033603;28;20539;-86
2022/07/28 08:49:11;;;;;;;22.47;21.07;;;;;;;;;;5034187;28;20886;-85
2022/07/28 08:51:38;;;;;;;21.73;20.53;;;;;;;;;;5034506;28;20435;-85
2022/07/28 08:54:06;;;;;;;23.10;21.70;;;;;;;;;;5033863;28;20811;-83
2022/07/28 08:56:34;;;;;;;24.30;22.90;;;;;;;;;;5033112;28;20843;-83
2022/07/28 08:59:03;;;;;;;23.63;22.00;;;;;;;;;;5033365;28;20409;-91
2022/07/28 09:01:31;;;;;;;24.57;23.37;;;;;;;;;;5024808;28;20792;-89
2022/07/28 09:03:58;;;;;;;24.30;23.00;;;;;;;;;;5016725;28;20519;-87
2022/07/28 09:06:26;;;;;;;24.47;23.17;;;;;;;;;;5015064;28;20443;-85
2022/07/28 09:08:53;;;;;;;24.63;23.33;;;;;;;;;;5014292;28;20758;-88
2022/07/28 09:11:20;;;;;;;25.17;23.83;;;;;;;;;;5014676;28;20423;-83
2022/07/28 09:13:48;;;;;;;23.90;22.30;;;;;;;;;;5013526;28;20414;-84
2022/07/28 09:16:17;;;;;;;22.30;21.20;;;;;;;;;;5012331;28;20980;-84
2022/07/28 09:18:45;;;;;;;22.63;21.43;;;;;;;;;;5013192;28;20573;-84
2022/07/28 09:21:14;;;;;;;23.47;22.13;;;;;;;;;;5013055;28;20456;-84
2022/07/28 09:23:47;;;;;;;23.07;21.47;;;;;;;;;;5013361;28;20503;-83
2022/07/28 09:26:15;;;;;;;23.33;21.60;;;;;;;;;;5013950;28;20459;-83
2022/07/28 09:28:53;;;;;;;24.20;22.60;;;;;;;;;;5012242;28;20963;-84
2022/07/28 09:31:22;;;;;;;22.20;21.10;;;;;;;;;;5015081;28;20427;-84
2022/07/28 09:33:57;;;;;;;23.07;21.80;;;;;;;;;;5017042;28;20422;-84
2022/07/28 09:36:24;;;;;;;23.03;21.83;;;;;;;;;;5017044;28;20458;-85
2022/07/28 09:38:52;;;;;;;23.40;21.97;;;;;;;;;;5017073;28;20923;-84
2022/07/28 09:41:20;;;;;;;24.30;22.87;;;;;;;;;;5015421;28;20430;-84
2022/07/28 09:43:48;;;;;;;23.43;22.07;;;;;;;;;;5015393;28;20527;-84
2022/07/28 09:46:16;;;;;;;23.27;21.83;;;;;;;;;;5016026;28;20531;-84
2022/07/28 09:49:07;;;;;;;22.10;20.90;;;;;;;;;;5016871;28;20437;-82
2022/07/28 09:51:35;;;;;;;23.90;22.53;;;;;;;;;;5016586;28;20418;-80
2022/07/28 09:54:09;;;;;;;24.30;23.00;;;;;;;;;;5016320;28;20449;-80
2022/07/28 09:56:37;;;;;;;23.73;22.27;;;;;;;;;;5016275;28;20456;-79
2022/07/28 09:59:06;;;;;;;24.20;22.90;;;;;;;;;;5015982;28;20427;-83
2022/07/28 10:01:34;;;;;;;24.60;23.03;;;;;;;;;;5016140;28;20433;-82
2022/07/28 10:04:03;;;;;;;23.63;22.03;;;;;;;;;;5014698;28;20435;-82
2022/07/28 10:06:31;;;;;;;23.37;22.13;;;;;;;;;;5016227;28;20763;-83
2022/07/28 10:08:59;;;;;;;24.00;22.70;;;;;;;;;;5015901;28;20421;-83
2022/07/28 10:11:27;;;;;;;24.17;22.77;;;;;;;;;;5014753;28;20492;-83
2022/07/28 10:13:57;;;;;;;24.80;22.93;;;;;;;;;;5015690;28;20409;-81
2022/07/28 10:16:25;;;;;;;23.80;22.57;;;;;;;;;;5016083;28;20794;-83
2022/07/28 10:18:53;;;;;;;24.03;22.60;;;;;;;;;;5016000;28;20930;-82
2022/07/28 10:21:24;;;;;;;23.73;22.13;;;;;;;;;;5015816;28;20815;-82
2022/07/28 10:23:52;;;;;;;22.30;21.10;;;;;;;;;;5016001;28;20499;-82
2022/07/28 10:26:21;;;;;;;23.10;21.70;;;;;;;;;;5015470;28;20555;-82
2022/07/28 10:28:50;;;;;;;22.63;21.10;;;;;;;;;;5015437;28;20909;-83
2022/07/28 10:31:26;;;;;;;22.30;21.00;;;;;;;;;;5015790;28;20423;-83
2022/07/28 10:33:54;;;;;;;23.23;21.93;;;;;;;;;;5015729;28;20480;-82
2022/07/28 10:36:24;;;;;;;24.60;23.10;;;;;;;;;;5015333;28;20469;-82
2022/07/28 10:38:55;;;;;;;23.67;22.17;;;;;;;;;;5015628;28;20425;-82
2022/07/28 10:41:22;;;;;;;24.60;22.83;;;;;;;;;;5015555;28;20424;-82
2022/07/28 10:43:51;;;;;;;23.43;22.13;;;;;;;;;;5015312;28;20950;-85
2022/07/28 10:46:18;;;;;;;24.10;22.60;;;;;;;;;;5015931;28;20421;-85
2022/07/28 10:48:45;;;;;;;22.30;21.10;;;;;;;;;;5015723;28;20413;-84
2022/07/28 10:51:13;;;;;;;24.03;22.53;;;;;;;;;;5015794;28;20418;-85
2022/07/28 10:53:46;;;;;;;23.73;22.10;;;;;;;;;;5014792;28;20508;-84
2022/07/28 10:56:15;;;;;;;23.27;21.73;;;;;;;;;;5015785;28;20472;-85
2022/07/28 10:58:46;;;;;;;23.50;22.00;;;;;;;;;;5015783;28;20428;-85
2022/07/28 11:01:33;;;;;;;23.20;21.77;;;;;;;;;;5015397;28;20474;-85
2022/07/28 11:04:01;;;;;;;22.50;20.93;;;;;;;;;;5015649;28;20413;-78
2022/07/28 11:06:29;;;;;;;23.23;21.67;;;;;;;;;;5013406;28;20887;-78
2022/07/28 11:08:58;;;;;;;23.43;21.93;;;;;;;;;;5014511;28;20421;-77
2022/07/28 11:11:45;;;;;;;22.83;21.47;;;;;;;;;;5013907;28;20423;-78
2022/07/28 11:14:35;;;;;;;22.20;20.90;;;;;;;;;;5033732;28;20769;-78
2022/07/28 11:17:18;;;;;;;22.77;21.37;;;;;;;;;;5033859;28;20987;-77
2022/07/28 11:20:06;;;;;;;22.30;21.03;;;;;;;;;;5034003;28;20422;-78
2022/07/28 11:22:34;;;;;;;21.30;20.10;;;;;;;;;;5029138;28;20444;-78
2022/07/28 11:25:16;;;;;;;23.23;21.80;;;;;;;;;;5034236;28;20477;-78
2022/07/28 11:28:03;;;;;;;21.93;20.63;;;;;;;;;;5034048;28;20496;-78
2022/07/28 11:30:49;;;;;;;23.70;22.30;;;;;;;;;;5033852;28;20989;-77
2022/07/28 11:33:16;;;;;;;23.27;21.90;;;;;;;;;;5034124;28;20425;-78
2022/07/28 11:36:07;;;;;;;23.80;22.30;;;;;;;;;;5033668;28;20452;-78
2022/07/28 11:38:34;;;;;;;23.57;22.07;;;;;;;;;;5018843;28;20456;-78
2022/07/28 11:41:03;;;;;;;22.80;21.50;;;;;;;;;;5033786;28;20415;-77
2022/07/28 11:43:32;;;;;;;23.13;21.90;;;;;;;;;;5033735;28;20423;-78
2022/07/28 11:46:23;;;;;;;24.27;22.77;;;;;;;;;;5033526;28;20497;-77
2022/07/28 11:49:05;;;;;;;23.53;22.23;;;;;;;;;;5018733;28;20516;-77
2022/07/28 11:51:33;;;;;;;24.83;23.33;;;;;;;;;;5033264;28;20432;-78
2022/07/28 11:54:00;;;;;;;24.83;23.23;;;;;;;;;;5032972;28;20456;-77
2022/07/28 11:56:34;;;;;;;23.07;21.77;;;;;;;;;;5032806;28;20482;-78
2022/07/28 11:59:03;;;;;;;23.77;22.07;;;;;;;;;;5033356;28;20448;-77
2022/07/28 12:01:31;;;;;;;24.20;22.60;;;;;;;;;;5032892;28;20420;-77
2022/07/28 12:03:58;;;;;;;22.53;21.33;;;;;;;;;;5033562;28;20413;-78
2022/07/28 12:06:27;;;;;;;23.40;22.00;;;;;;;;;;5033015;28;20885;-77
2022/07/28 12:08:55;;;;;;;23.10;21.77;;;;;;;;;;5033234;28;20435;-84
2022/07/28 12:11:23;;;;;;;25.43;23.80;;;;;;;;;;5033288;28;20450;-76
2022/07/28 12:13:58;;;;;;;25.33;23.63;;;;;;;;;;5032991;28;20781;-76
2022/07/28 12:16:27;;;;;;;25.67;23.80;;;;;;;;;;5032789;28;20463;-77
2022/07/28 12:18:55;;;;;;;23.93;22.43;;;;;;;;;;5032925;28;20903;-77
2022/07/28 12:21:35;;;;;;;24.07;22.50;;;;;;;;;;5032836;28;20409;-77
2022/07/28 12:24:03;;;;;;;24.10;22.73;;;;;;;;;;5032859;28;20451;-77
2022/07/28 12:26:30;;;;;;;24.73;23.20;;;;;;;;;;5032622;28;20461;-77
2022/07/28 12:29:00;;;;;;;24.77;23.07;;;;;;;;;;5033100;28;20443;-78
2022/07/28 12:31:28;;;;;;;24.50;22.63;;;;;;;;;;5033174;28;20418;-77
2022/07/28 12:33:56;;;;;;;24.00;22.70;;;;;;;;;;5033245;28;20440;-77
2022/07/28 12:36:23;;;;;;;23.70;22.40;;;;;;;;;;5032567;28;20991;-78
2022/07/28 12:38:51;;;;;;;25.20;23.57;;;;;;;;;;5033190;28;20450;-77
2022/07/28 12:41:19;;;;;;;24.20;22.80;;;;;;;;;;5032646;28;20421;-78
2022/07/28 12:43:50;;;;;;;25.50;24.10;;;;;;;;;;5032664;28;20417;-77
2022/07/28 12:46:22;;;;;;;24.03;22.43;;;;;;;;;;5032481;28;20425;-78
2022/07/28 12:48:49;;;;;;;23.67;22.17;;;;;;;;;;5032695;28;20471;-77
2022/07/28 12:51:30;;;;;;;24.53;22.90;;;;;;;;;;5032824;28;20413;-77
2022/07/28 12:53:57;;;;;;;23.47;21.80;;;;;;;;;;5032796;28;20474;-77
2022/07/28 12:56:25;;;;;;;23.33;21.97;;;;;;;;;;5032434;28;20461;-77
2022/07/28 12:59:04;;;;;;;24.03;22.30;;;;;;;;;;5033006;28;20443;-77
2022/07/28 13:01:46;;;;;;;23.33;22.00;;;;;;;;;;5032734;28;20441;-77
2022/07/28 13:04:13;;;;;;;23.47;22.07;;;;;;;;;;5032506;28;20450;-77
2022/07/28 13:06:40;;;;;;;23.47;22.07;;;;;;;;;;5033893;28;20447;-76
2022/07/28 13:09:08;;;;;;;22.87;21.57;;;;;;;;;;5036827;28;20940;-78
2022/07/28 13:11:36;;;;;;;23.93;22.50;;;;;;;;;;5036306;28;20425;-77
2022/07/28 13:14:03;;;;;;;23.37;21.70;;;;;;;;;;5036683;28;20418;-78
2022/07/28 13:16:30;;;;;;;23.60;22.10;;;;;;;;;;5036257;28;20494;-78
2022/07/28 13:19:01;;;;;;;23.20;21.80;;;;;;;;;;5035994;28;20424;-78
2022/07/28 13:21:39;;;;;;;23.60;22.00;;;;;;;;;;5036699;28;20432;-80
2022/07/28 13:24:08;;;;;;;23.37;21.97;;;;;;;;;;5036320;28;20433;-77
2022/07/28 13:26:36;;;;;;;24.03;22.63;;;;;;;;;;5035593;28;20482;-77
2022/07/28 13:29:04;;;;;;;23.70;22.10;;;;;;;;;;5036362;28;20768;-79
2022/07/28 13:31:34;;;;;;;23.43;22.00;;;;;;;;;;5036154;28;20409;-78
2022/07/28 13:34:03;;;;;;;24.13;22.43;;;;;;;;;;5036148;28;20415;-77
2022/07/28 13:36:30;;;;;;;25.10;23.30;;;;;;;;;;5036133;28;20476;-77
2022/07/28 13:38:58;;;;;;;24.47;22.73;;;;;;;;;;5035801;28;20950;-77
2022/07/28 13:41:25;;;;;;;24.03;22.50;;;;;;;;;;5035937;28;20938;-78
2022/07/28 13:43:55;;;;;;;23.93;22.50;;;;;;;;;;5036241;28;20413;-78
2022/07/28 13:46:23;;;;;;;24.17;22.50;;;;;;;;;;5036063;28;20428;-78
2022/07/28 13:48:50;;;;;;;23.80;22.40;;;;;;;;;;5035563;28;20454;-78
2022/07/28 13:51:19;;;;;;;24.70;23.07;;;;;;;;;;5035716;28;20422;-78
2022/07/28 13:53:46;;;;;;;23.67;22.17;;;;;;;;;;5035590;28;20474;-77
2022/07/28 13:56:13;;;;;;;24.27;22.80;;;;;;;;;;5035684;28;20452;-78
2022/07/28 13:58:41;;;;;;;23.93;22.53;;;;;;;;;;5035533;28;20442;-77
2022/07/28 14:01:11;;;;;;;24.90;23.43;;;;;;;;;;5034356;28;20454;-78
2022/07/28 14:03:39;;;;;;;23.73;22.33;;;;;;;;;;5035792;28;20477;-78
2022/07/28 14:06:06;;;;;;;24.03;22.63;;;;;;;;;;5034046;28;20425;-78
2022/07/28 14:08:35;;;;;;;25.33;23.60;;;;;;;;;;5035660;28;20411;-77
2022/07/28 14:11:03;;;;;;;25.23;23.40;;;;;;;;;;5035573;28;20535;-79
2022/07/28 14:13:30;;;;;;;23.93;22.47;;;;;;;;;;5035604;28;20444;-79
2022/07/28 14:15:58;;;;;;;24.50;22.90;;;;;;;;;;5035494;28;20436;-79
2022/07/28 14:18:25;;;;;;;23.00;21.70;;;;;;;;;;5034050;28;20462;-79
2022/07/28 14:20:52;;;;;;;23.33;22.00;;;;;;;;;;5035025;28;20893;-79
2022/07/28 14:23:19;;;;;;;23.40;22.00;;;;;;;;;;5035722;28;20420;-80
2022/07/28 14:25:48;;;;;;;24.20;22.80;;;;;;;;;;5034959;28;20458;-78